sensor_id;sensor_type;location;lat;lon;timestamp;pressure;altitude;pressure_sealevel;temperature;humidity
47913;BME280;33676;51.006;17.180;2023-02-13T00:01:53;102287.39;;;5.28;100.00
47913;BME280;33676;51.006;17.180;2023-02-13T00:04:22;102286.34;;;5.28;100.00
47913;BME280;33676;51.006;17.180;2023-02-13T00:06:50;102285.65;;;5.28;100.00
47913;BME280;33676;51.006;17.180;2023-02-13T00:09:18;102282.69;;;5.28;100.00
47913;BME280;33676;51.006;17.180;2023-02-13T00:11:47;102281.29;;;5.29;100.00
47913;BME280;33676;51.006;17.180;2023-02-13T00:14:15;102278.64;;;5.30;100.00
47913;BME280;33676;51.006;17.180;2023-02-13T00:16:44;102277.23;;;5.32;100.00
47913;BME280;33676;51.006;17.180;2023-02-13T00:19:12;102275.62;;;5.34;100.00
47913;BME280;33676;51.006;17.180;2023-02-13T00:21:41;102274.70;;;5.37;100.00
47913;BME280;33676;51.006;17.180;2023-02-13T00:24:09;102269.81;;;5.38;100.00
47913;BME280;33676;51.006;17.180;2023-02-13T00:26:38;102271.17;;;5.39;100.00
47913;BME280;33676;51.006;17.180;2023-02-13T00:29:07;102269.27;;;5.39;100.00
47913;BME280;33676;51.006;17.180;2023-02-13T00:31:35;102269.98;;;5.38;100.00
47913;BME280;33676;51.006;17.180;2023-02-13T00:34:04;102267.91;;;5.38;100.00
47913;BME280;33676;51.006;17.180;2023-02-13T00:36:32;102266.34;;;5.38;100.00
47913;BME280;33676;51.006;17.180;2023-02-13T00:39:01;102267.88;;;5.39;100.00
47913;BME280;33676;51.006;17.180;2023-02-13T00:41:29;102274.47;;;5.39;100.00
47913;BME280;33676;51.006;17.180;2023-02-13T00:43:58;102280.00;;;5.40;100.00
47913;BME280;33676;51.006;17.180;2023-02-13T00:46:26;102276.02;;;5.39;100.00
47913;BME280;33676;51.006;17.180;2023-02-13T00:48:54;102273.23;;;5.40;100.00
47913;BME280;33676;51.006;17.180;2023-02-13T00:51:23;102270.27;;;5.41;100.00
47913;BME280;33676;51.006;17.180;2023-02-13T00:53:51;102267.30;;;5.41;100.00
47913;BME280;33676;51.006;17.180;2023-02-13T00:56:20;102265.73;;;5.42;100.00
47913;BME280;33676;51.006;17.180;2023-02-13T00:58:48;102268.50;;;5.42;100.00
47913;BME280;33676;51.006;17.180;2023-02-13T01:01:17;102265.71;;;5.42;100.00
47913;BME280;33676;51.006;17.180;2023-02-13T01:03:45;102270.55;;;5.43;100.00
47913;BME280;33676;51.006;17.180;2023-02-13T01:06:14;102273.82;;;5.44;100.00
47913;BME280;33676;51.006;17.180;2023-02-13T01:08:42;102270.88;;;5.44;100.00
47913;BME280;33676;51.006;17.180;2023-02-13T01:11:10;102270.17;;;5.45;100.00
47913;BME280;33676;51.006;17.180;2023-02-13T01:13:39;102272.41;;;5.45;100.00
47913;BME280;33676;51.006;17.180;2023-02-13T01:16:07;102275.19;;;5.45;100.00
47913;BME280;33676;51.006;17.180;2023-02-13T01:18:36;102271.71;;;5.45;100.00
47913;BME280;33676;51.006;17.180;2023-02-13T01:21:07;102270.52;;;5.44;100.00
47913;BME280;33676;51.006;17.180;2023-02-13T01:23:37;102267.75;;;5.44;100.00
47913;BME280;33676;51.006;17.180;2023-02-13T01:26:07;102271.79;;;5.42;100.00
47913;BME280;33676;51.006;17.180;2023-02-13T01:28:38;102270.97;;;5.40;100.00
47913;BME280;33676;51.006;17.180;2023-02-13T01:31:06;102269.23;;;5.40;100.00
47913;BME280;33676;51.006;17.180;2023-02-13T01:33:35;102263.39;;;5.38;100.00
47913;BME280;33676;51.006;17.180;2023-02-13T01:36:09;102264.27;;;5.38;100.00
47913;BME280;33676;51.006;17.180;2023-02-13T01:38:38;102261.36;;;5.36;100.00
47913;BME280;33676;51.006;17.180;2023-02-13T01:41:07;102263.46;;;5.35;100.00
47913;BME280;33676;51.006;17.180;2023-02-13T01:43:58;102261.05;;;5.34;100.00
47913;BME280;33676;51.006;17.180;2023-02-13T01:46:38;102263.50;;;5.33;100.00
47913;BME280;33676;51.006;17.180;2023-02-13T01:49:19;102261.61;;;5.32;100.00
47913;BME280;33676;51.006;17.180;2023-02-13T01:51:52;102260.93;;;5.32;100.00
47913;BME280;33676;51.006;17.180;2023-02-13T01:54:26;102258.15;;;5.32;100.00
47913;BME280;33676;51.006;17.180;2023-02-13T01:57:03;102254.16;;;5.32;100.00
47913;BME280;33676;51.006;17.180;2023-02-13T01:59:42;102257.28;;;5.32;100.00
47913;BME280;33676;51.006;17.180;2023-02-13T02:02:12;102250.20;;;5.31;100.00
47913;BME280;33676;51.006;17.180;2023-02-13T02:04:41;102247.98;;;5.30;100.00
47913;BME280;33676;51.006;17.180;2023-02-13T02:07:22;102250.41;;;5.29;100.00
47913;BME280;33676;51.006;17.180;2023-02-13T02:10:00;102240.02;;;5.29;100.00
47913;BME280;33676;51.006;17.180;2023-02-13T02:13:03;102242.60;;;5.30;100.00
47913;BME280;33676;51.006;17.180;2023-02-13T02:15:33;102239.32;;;5.29;100.00
47913;BME280;33676;51.006;17.180;2023-02-13T02:18:02;102236.72;;;5.29;100.00
47913;BME280;33676;51.006;17.180;2023-02-13T02:20:53;102233.77;;;5.29;100.00
47913;BME280;33676;51.006;17.180;2023-02-13T02:29:39;102229.98;;;5.28;100.00
47913;BME280;33676;51.006;17.180;2023-02-13T02:41:47;102241.45;;;5.27;100.00
47913;BME280;33676;51.006;17.180;2023-02-13T02:44:45;102236.77;;;5.27;100.00
47913;BME280;33676;51.006;17.180;2023-02-13T02:47:46;102236.76;;;5.28;100.00
47913;BME280;33676;51.006;17.180;2023-02-13T02:51:01;102231.70;;;5.29;100.00
47913;BME280;33676;51.006;17.180;2023-02-13T02:54:08;102231.31;;;5.31;100.00
47913;BME280;33676;51.006;17.180;2023-02-13T02:57:06;102236.12;;;5.32;100.00
47913;BME280;33676;51.006;17.180;2023-02-13T02:59:39;102237.46;;;5.35;100.00
47913;BME280;33676;51.006;17.180;2023-02-13T03:02:29;102240.03;;;5.36;100.00
47913;BME280;33676;51.006;17.180;2023-02-13T03:05:30;102240.52;;;5.37;100.00
47913;BME280;33676;51.006;17.180;2023-02-13T03:08:18;102235.50;;;5.37;100.00
47913;BME280;33676;51.006;17.180;2023-02-13T03:11:08;102232.35;;;5.38;100.00
47913;BME280;33676;51.006;17.180;2023-02-13T03:13:56;102237.16;;;5.40;100.00
47913;BME280;33676;51.006;17.180;2023-02-13T03:16:27;102236.79;;;5.41;100.00
47913;BME280;33676;51.006;17.180;2023-02-13T03:19:41;102231.92;;;5.41;100.00
47913;BME280;33676;51.006;17.180;2023-02-13T03:22:40;102225.46;;;5.43;100.00
47913;BME280;33676;51.006;17.180;2023-02-13T03:25:29;102225.24;;;5.45;100.00
47913;BME280;33676;51.006;17.180;2023-02-13T03:28:21;102228.35;;;5.46;100.00
47913;BME280;33676;51.006;17.180;2023-02-13T03:34:20;102224.63;;;5.48;100.00
47913;BME280;33676;51.006;17.180;2023-02-13T03:37:00;102226.45;;;5.52;100.00
47913;BME280;33676;51.006;17.180;2023-02-13T03:40:04;102230.05;;;5.53;100.00
47913;BME280;33676;51.006;17.180;2023-02-13T03:45:20;102231.89;;;5.56;100.00
47913;BME280;33676;51.006;17.180;2023-02-13T03:48:09;102233.59;;;5.57;100.00
47913;BME280;33676;51.006;17.180;2023-02-13T03:50:59;102237.74;;;5.58;100.00
47913;BME280;33676;51.006;17.180;2023-02-13T03:53:30;102240.84;;;5.59;100.00
47913;BME280;33676;51.006;17.180;2023-02-13T03:56:01;102240.13;;;5.59;100.00
47913;BME280;33676;51.006;17.180;2023-02-13T03:58:52;102242.34;;;5.61;100.00
47913;BME280;33676;51.006;17.180;2023-02-13T04:01:43;102234.86;;;5.62;100.00
47913;BME280;33676;51.006;17.180;2023-02-13T04:05:07;102236.89;;;5.64;100.00
47913;BME280;33676;51.006;17.180;2023-02-13T04:07:36;102234.75;;;5.66;100.00
47913;BME280;33676;51.006;17.180;2023-02-13T04:10:08;102235.06;;;5.68;100.00
47913;BME280;33676;51.006;17.180;2023-02-13T04:15:52;102236.04;;;5.70;100.00
47913;BME280;33676;51.006;17.180;2023-02-13T04:18:29;102232.38;;;5.71;100.00
47913;BME280;33676;51.006;17.180;2023-02-13T04:21:06;102232.36;;;5.71;100.00
47913;BME280;33676;51.006;17.180;2023-02-13T04:23:35;102232.36;;;5.71;100.00
47913;BME280;33676;51.006;17.180;2023-02-13T04:26:15;102223.52;;;5.71;100.00
47913;BME280;33676;51.006;17.180;2023-02-13T04:28:44;102226.25;;;5.72;100.00
47913;BME280;33676;51.006;17.180;2023-02-13T04:31:12;102222.47;;;5.71;100.00
47913;BME280;33676;51.006;17.180;2023-02-13T04:33:41;102226.48;;;5.71;100.00
47913;BME280;33676;51.006;17.180;2023-02-13T04:36:09;102228.07;;;5.70;100.00
47913;BME280;33676;51.006;17.180;2023-02-13T04:38:38;102226.70;;;5.69;100.00
47913;BME280;33676;51.006;17.180;2023-02-13T04:41:06;102225.33;;;5.69;100.00
47913;BME280;33676;51.006;17.180;2023-02-13T04:43:34;102228.29;;;5.68;100.00
47913;BME280;33676;51.006;17.180;2023-02-13T04:46:03;102230.52;;;5.69;100.00
47913;BME280;33676;51.006;17.180;2023-02-13T04:48:31;102232.61;;;5.68;100.00
47913;BME280;33676;51.006;17.180;2023-02-13T04:51:00;102234.54;;;5.68;100.00
47913;BME280;33676;51.006;17.180;2023-02-13T04:53:28;102230.05;;;5.67;100.00
47913;BME280;33676;51.006;17.180;2023-02-13T04:55:57;102231.34;;;5.64;100.00
47913;BME280;33676;51.006;17.180;2023-02-13T04:58:25;102226.34;;;5.62;100.00
47913;BME280;33676;51.006;17.180;2023-02-13T05:00:54;102222.39;;;5.61;100.00
47913;BME280;33676;51.006;17.180;2023-02-13T05:03:22;102217.08;;;5.58;100.00
47913;BME280;33676;51.006;17.180;2023-02-13T05:05:51;102215.70;;;5.58;100.00
47913;BME280;33676;51.006;17.180;2023-02-13T05:08:19;102213.30;;;5.57;100.00
47913;BME280;33676;51.006;17.180;2023-02-13T05:10:47;102211.09;;;5.56;100.00
47913;BME280;33676;51.006;17.180;2023-02-13T05:13:16;102211.28;;;5.55;100.00
47913;BME280;33676;51.006;17.180;2023-02-13T05:15:46;102206.08;;;5.54;100.00
47913;BME280;33676;51.006;17.180;2023-02-13T05:18:15;102208.52;;;5.54;100.00
47913;BME280;33676;51.006;17.180;2023-02-13T05:20:44;102207.84;;;5.53;100.00
47913;BME280;33676;51.006;17.180;2023-02-13T05:23:33;102207.88;;;5.52;100.00
47913;BME280;33676;51.006;17.180;2023-02-13T05:26:01;102208.40;;;5.52;100.00
47913;BME280;33676;51.006;17.180;2023-02-13T05:28:30;102207.19;;;5.52;100.00
47913;BME280;33676;51.006;17.180;2023-02-13T05:31:17;102210.48;;;5.52;100.00
47913;BME280;33676;51.006;17.180;2023-02-13T05:33:45;102213.79;;;5.52;100.00
47913;BME280;33676;51.006;17.180;2023-02-13T05:36:13;102215.02;;;5.51;100.00
47913;BME280;33676;51.006;17.180;2023-02-13T05:38:42;102215.56;;;5.50;100.00
47913;BME280;33676;51.006;17.180;2023-02-13T05:41:10;102214.20;;;5.49;100.00
47913;BME280;33676;51.006;17.180;2023-02-13T05:43:40;102213.36;;;5.48;100.00
47913;BME280;33676;51.006;17.180;2023-02-13T05:46:09;102217.17;;;5.48;100.00
47913;BME280;33676;51.006;17.180;2023-02-13T05:48:37;102216.64;;;5.49;100.00
47913;BME280;33676;51.006;17.180;2023-02-13T05:51:06;102217.68;;;5.49;100.00
47913;BME280;33676;51.006;17.180;2023-02-13T05:53:35;102218.34;;;5.50;100.00
47913;BME280;33676;51.006;17.180;2023-02-13T05:56:05;102219.89;;;5.51;100.00
47913;BME280;33676;51.006;17.180;2023-02-13T05:58:35;102220.56;;;5.52;100.00
47913;BME280;33676;51.006;17.180;2023-02-13T06:01:04;102219.70;;;5.52;100.00
47913;BME280;33676;51.006;17.180;2023-02-13T06:03:32;102223.30;;;5.53;100.00
47913;BME280;33676;51.006;17.180;2023-02-13T06:06:01;102226.41;;;5.53;100.00
47913;BME280;33676;51.006;17.180;2023-02-13T06:08:30;102225.35;;;5.54;100.00
47913;BME280;33676;51.006;17.180;2023-02-13T06:10:58;102223.41;;;5.55;100.00
47913;BME280;33676;51.006;17.180;2023-02-13T06:13:27;102226.66;;;5.57;100.00
47913;BME280;33676;51.006;17.180;2023-02-13T06:15:56;102227.67;;;5.58;100.00
47913;BME280;33676;51.006;17.180;2023-02-13T06:18:24;102229.55;;;5.59;100.00
47913;BME280;33676;51.006;17.180;2023-02-13T06:20:53;102230.42;;;5.59;100.00
47913;BME280;33676;51.006;17.180;2023-02-13T06:23:21;102233.70;;;5.60;100.00
47913;BME280;33676;51.006;17.180;2023-02-13T06:25:50;102239.09;;;5.59;100.00
47913;BME280;33676;51.006;17.180;2023-02-13T06:28:18;102235.98;;;5.59;100.00
47913;BME280;33676;51.006;17.180;2023-02-13T06:30:47;102240.67;;;5.58;100.00
47913;BME280;33676;51.006;17.180;2023-02-13T06:33:16;102241.89;;;5.58;100.00
47913;BME280;33676;51.006;17.180;2023-02-13T06:35:44;102245.02;;;5.58;100.00
47913;BME280;33676;51.006;17.180;2023-02-13T06:38:13;102248.48;;;5.59;100.00
47913;BME280;33676;51.006;17.180;2023-02-13T06:40:41;102248.00;;;5.57;100.00
47913;BME280;33676;51.006;17.180;2023-02-13T06:43:10;102246.28;;;5.56;100.00
47913;BME280;33676;51.006;17.180;2023-02-13T06:45:39;102245.80;;;5.55;100.00
47913;BME280;33676;51.006;17.180;2023-02-13T06:48:08;102247.85;;;5.49;100.00
47913;BME280;33676;51.006;17.180;2023-02-13T06:50:36;102249.35;;;5.30;100.00
47913;BME280;33676;51.006;17.180;2023-02-13T06:53:05;102249.10;;;5.05;100.00
47913;BME280;33676;51.006;17.180;2023-02-13T06:55:34;102251.98;;;4.85;100.00
47913;BME280;33676;51.006;17.180;2023-02-13T06:58:03;102253.65;;;4.73;100.00
47913;BME280;33676;51.006;17.180;2023-02-13T07:00:32;102252.31;;;4.64;100.00
47913;BME280;33676;51.006;17.180;2023-02-13T07:03:04;102253.49;;;4.57;100.00
47913;BME280;33676;51.006;17.180;2023-02-13T07:05:33;102254.48;;;4.52;100.00
47913;BME280;33676;51.006;17.180;2023-02-13T07:08:01;102253.45;;;4.51;100.00
47913;BME280;33676;51.006;17.180;2023-02-13T07:10:30;102248.70;;;4.55;100.00
47913;BME280;33676;51.006;17.180;2023-02-13T07:12:58;102245.34;;;4.66;100.00
47913;BME280;33676;51.006;17.180;2023-02-13T07:15:34;102240.25;;;4.76;100.00
47913;BME280;33676;51.006;17.180;2023-02-13T07:18:05;102243.13;;;4.86;100.00
47913;BME280;33676;51.006;17.180;2023-02-13T07:20:34;102237.71;;;4.96;100.00
47913;BME280;33676;51.006;17.180;2023-02-13T07:23:04;102235.95;;;5.05;100.00
47913;BME280;33676;51.006;17.180;2023-02-13T07:25:33;102234.35;;;5.14;100.00
47913;BME280;33676;51.006;17.180;2023-02-13T07:28:04;102238.50;;;5.21;100.00
47913;BME280;33676;51.006;17.180;2023-02-13T07:30:33;102244.55;;;5.28;100.00
47913;BME280;33676;51.006;17.180;2023-02-13T07:33:04;102242.66;;;5.35;100.00
47913;BME280;33676;51.006;17.180;2023-02-13T07:35:32;102242.02;;;5.40;100.00
47913;BME280;33676;51.006;17.180;2023-02-13T07:38:01;102243.79;;;5.45;100.00
47913;BME280;33676;51.006;17.180;2023-02-13T07:40:29;102242.27;;;5.51;100.00
47913;BME280;33676;51.006;17.180;2023-02-13T07:42:59;102239.35;;;5.56;100.00
47913;BME280;33676;51.006;17.180;2023-02-13T07:45:28;102237.31;;;5.61;100.00
47913;BME280;33676;51.006;17.180;2023-02-13T07:47:57;102237.20;;;5.66;100.00
47913;BME280;33676;51.006;17.180;2023-02-13T07:50:28;102236.25;;;5.62;100.00
47913;BME280;33676;51.006;17.180;2023-02-13T07:52:59;102237.82;;;5.48;100.00
47913;BME280;33676;51.006;17.180;2023-02-13T07:55:29;102237.92;;;5.30;100.00
47913;BME280;33676;51.006;17.180;2023-02-13T07:57:59;102236.52;;;5.17;100.00
47913;BME280;33676;51.006;17.180;2023-02-13T08:00:28;102231.16;;;5.09;100.00
47913;BME280;33676;51.006;17.180;2023-02-13T08:03:00;102239.86;;;5.08;100.00
47913;BME280;33676;51.006;17.180;2023-02-13T08:05:31;102231.84;;;5.17;100.00
47913;BME280;33676;51.006;17.180;2023-02-13T08:07:59;102229.78;;;5.29;100.00
47913;BME280;33676;51.006;17.180;2023-02-13T08:10:28;102229.82;;;5.42;100.00
47913;BME280;33676;51.006;17.180;2023-02-13T08:13:15;102231.92;;;5.55;100.00
47913;BME280;33676;51.006;17.180;2023-02-13T08:15:44;102235.09;;;5.67;100.00
47913;BME280;33676;51.006;17.180;2023-02-13T08:18:13;102237.01;;;5.79;100.00
47913;BME280;33676;51.006;17.180;2023-02-13T08:20:42;102234.47;;;5.90;100.00
47913;BME280;33676;51.006;17.180;2023-02-13T08:23:10;102234.02;;;6.00;100.00
47913;BME280;33676;51.006;17.180;2023-02-13T08:25:39;102229.92;;;6.10;100.00
47913;BME280;33676;51.006;17.180;2023-02-13T08:28:08;102231.06;;;6.19;100.00
47913;BME280;33676;51.006;17.180;2023-02-13T08:30:37;102233.44;;;6.26;100.00
47913;BME280;33676;51.006;17.180;2023-02-13T08:33:06;102229.03;;;6.34;100.00
47913;BME280;33676;51.006;17.180;2023-02-13T08:35:34;102234.17;;;6.43;100.00
47913;BME280;33676;51.006;17.180;2023-02-13T08:38:04;102233.12;;;6.49;100.00
47913;BME280;33676;51.006;17.180;2023-02-13T08:40:32;102236.83;;;6.53;100.00
47913;BME280;33676;51.006;17.180;2023-02-13T08:43:03;102235.69;;;6.56;100.00
47913;BME280;33676;51.006;17.180;2023-02-13T08:45:32;102230.25;;;6.58;100.00
47913;BME280;33676;51.006;17.180;2023-02-13T08:48:01;102229.63;;;6.61;100.00
47913;BME280;33676;51.006;17.180;2023-02-13T08:50:31;102231.65;;;6.63;100.00
47913;BME280;33676;51.006;17.180;2023-02-13T08:52:59;102231.93;;;6.66;100.00
47913;BME280;33676;51.006;17.180;2023-02-13T08:55:28;102230.34;;;6.67;100.00
47913;BME280;33676;51.006;17.180;2023-02-13T08:58:03;102231.83;;;6.57;100.00
47913;BME280;33676;51.006;17.180;2023-02-13T09:00:32;102231.11;;;6.46;100.00
47913;BME280;33676;51.006;17.180;2023-02-13T09:03:01;102231.04;;;6.37;100.00
47913;BME280;33676;51.006;17.180;2023-02-13T09:05:31;102231.46;;;6.28;100.00
47913;BME280;33676;51.006;17.180;2023-02-13T09:08:00;102231.93;;;6.30;100.00
47913;BME280;33676;51.006;17.180;2023-02-13T09:10:31;102236.89;;;6.39;100.00
47913;BME280;33676;51.006;17.180;2023-02-13T09:13:00;102234.55;;;6.48;100.00
47913;BME280;33676;51.006;17.180;2023-02-13T09:15:29;102236.59;;;6.55;100.00
47913;BME280;33676;51.006;17.180;2023-02-13T09:17:58;102240.73;;;6.62;100.00
47913;BME280;33676;51.006;17.180;2023-02-13T09:20:27;102243.16;;;6.68;100.00
47913;BME280;33676;51.006;17.180;2023-02-13T09:22:55;102247.07;;;6.71;100.00
47913;BME280;33676;51.006;17.180;2023-02-13T09:25:24;102244.91;;;6.74;100.00
47913;BME280;33676;51.006;17.180;2023-02-13T09:27:53;102245.84;;;6.76;100.00
47913;BME280;33676;51.006;17.180;2023-02-13T09:30:21;102247.34;;;6.79;100.00
47913;BME280;33676;51.006;17.180;2023-02-13T09:32:52;102249.89;;;6.80;100.00
47913;BME280;33676;51.006;17.180;2023-02-13T09:35:21;102251.35;;;6.83;100.00
47913;BME280;33676;51.006;17.180;2023-02-13T09:37:50;102254.02;;;6.87;100.00
47913;BME280;33676;51.006;17.180;2023-02-13T09:40:27;102253.76;;;6.90;100.00
47913;BME280;33676;51.006;17.180;2023-02-13T09:43:13;102255.77;;;6.92;100.00
47913;BME280;33676;51.006;17.180;2023-02-13T09:45:46;102261.54;;;6.91;100.00
47913;BME280;33676;51.006;17.180;2023-02-13T09:48:38;102263.97;;;6.92;100.00
47913;BME280;33676;51.006;17.180;2023-02-13T09:51:17;102263.88;;;7.00;100.00
47913;BME280;33676;51.006;17.180;2023-02-13T10:00:41;102275.77;;;7.14;100.00
47913;BME280;33676;51.006;17.180;2023-02-13T10:03:40;102277.62;;;7.11;100.00
47913;BME280;33676;51.006;17.180;2023-02-13T10:06:33;102277.47;;;6.99;100.00
47913;BME280;33676;51.006;17.180;2023-02-13T10:09:32;102283.44;;;6.86;100.00
47913;BME280;33676;51.006;17.180;2023-02-13T10:17:47;102283.85;;;6.95;100.00
47913;BME280;33676;51.006;17.180;2023-02-13T10:20:36;102282.67;;;7.05;100.00
47913;BME280;33676;51.006;17.180;2023-02-13T10:23:39;102284.13;;;7.14;100.00
47913;BME280;33676;51.006;17.180;2023-02-13T10:26:20;102278.06;;;7.24;100.00
47913;BME280;33676;51.006;17.180;2023-02-13T10:32:16;102276.14;;;7.45;100.00
47913;BME280;33676;51.006;17.180;2023-02-13T10:34:46;102270.39;;;7.51;100.00
47913;BME280;33676;51.006;17.180;2023-02-13T10:37:20;102270.51;;;7.58;100.00
47913;BME280;33676;51.006;17.180;2023-02-13T10:39:51;102268.05;;;7.64;100.00
47913;BME280;33676;51.006;17.180;2023-02-13T10:54:12;102262.48;;;7.93;100.00
47913;BME280;33676;51.006;17.180;2023-02-13T10:57:15;102258.63;;;8.04;100.00
47913;BME280;33676;51.006;17.180;2023-02-13T11:00:04;102252.04;;;8.17;100.00
47913;BME280;33676;51.006;17.180;2023-02-13T11:02:36;102252.18;;;8.33;100.00
47913;BME280;33676;51.006;17.180;2023-02-13T11:07:47;102250.74;;;8.43;100.00
47913;BME280;33676;51.006;17.180;2023-02-13T11:10:22;102243.18;;;8.41;100.00
47913;BME280;33676;51.006;17.180;2023-02-13T11:12:51;102243.80;;;8.38;100.00
47913;BME280;33676;51.006;17.180;2023-02-13T11:15:29;102244.46;;;8.39;100.00
47913;BME280;33676;51.006;17.180;2023-02-13T11:25:29;102238.63;;;8.18;100.00
47913;BME280;33676;51.006;17.180;2023-02-13T11:28:12;102235.89;;;7.92;100.00
47913;BME280;33676;51.006;17.180;2023-02-13T11:30:44;102232.33;;;7.75;100.00
47913;BME280;33676;51.006;17.180;2023-02-13T11:35:46;102235.95;;;7.67;100.00
47913;BME280;33676;51.006;17.180;2023-02-13T11:40:51;102227.94;;;7.72;100.00
47913;BME280;33676;51.006;17.180;2023-02-13T11:46:23;102221.62;;;7.78;100.00
47913;BME280;33676;51.006;17.180;2023-02-13T11:49:08;102218.11;;;7.79;100.00
47913;BME280;33676;51.006;17.180;2023-02-13T11:51:48;102215.66;;;7.79;100.00
47913;BME280;33676;51.006;17.180;2023-02-13T11:57:23;102220.61;;;7.77;100.00
47913;BME280;33676;51.006;17.180;2023-02-13T11:59:52;102223.27;;;7.75;100.00
47913;BME280;33676;51.006;17.180;2023-02-13T12:02:26;102221.40;;;7.74;100.00
47913;BME280;33676;51.006;17.180;2023-02-13T12:05:21;102224.40;;;7.73;100.00
47913;BME280;33676;51.006;17.180;2023-02-13T12:07:50;102219.73;;;7.72;100.00
47913;BME280;33676;51.006;17.180;2023-02-13T12:10:28;102222.05;;;7.71;100.00
47913;BME280;33676;51.006;17.180;2023-02-13T12:13:12;102225.78;;;7.68;100.00
47913;BME280;33676;51.006;17.180;2023-02-13T12:15:42;102226.48;;;7.63;100.00
47913;BME280;33676;51.006;17.180;2023-02-13T12:18:29;102225.15;;;7.56;100.00
47913;BME280;33676;51.006;17.180;2023-02-13T12:26:52;102226.11;;;7.38;100.00
47913;BME280;33676;51.006;17.180;2023-02-13T12:33:02;102221.42;;;7.38;99.55
47913;BME280;33676;51.006;17.180;2023-02-13T12:35:56;102216.51;;;7.34;99.38
47913;BME280;33676;51.006;17.180;2023-02-13T12:38:39;102218.71;;;7.30;99.09
47913;BME280;33676;51.006;17.180;2023-02-13T12:41:27;102214.30;;;7.17;98.47
47913;BME280;33676;51.006;17.180;2023-02-13T12:44:26;102214.96;;;7.02;97.94
47913;BME280;33676;51.006;17.180;2023-02-13T12:47:24;102208.20;;;6.90;98.51
47913;BME280;33676;51.006;17.180;2023-02-13T12:50:12;102204.02;;;6.91;99.61
47913;BME280;33676;51.006;17.180;2023-02-13T12:53:18;102208.37;;;6.96;100.00
47913;BME280;33676;51.006;17.180;2023-02-13T12:56:40;102204.59;;;7.00;100.00
47913;BME280;33676;51.006;17.180;2023-02-13T13:15:23;102202.17;;;7.10;99.94
47913;BME280;33676;51.006;17.180;2023-02-13T13:21:07;102195.34;;;7.17;100.00
47913;BME280;33676;51.006;17.180;2023-02-13T13:23:55;102194.66;;;7.22;99.62
47913;BME280;33676;51.006;17.180;2023-02-13T13:26:41;102200.43;;;7.26;99.40
47913;BME280;33676;51.006;17.180;2023-02-13T13:29:27;102202.33;;;7.31;99.46
47913;BME280;33676;51.006;17.180;2023-02-13T13:32:19;102206.86;;;7.36;99.24
47913;BME280;33676;51.006;17.180;2023-02-13T13:34:48;102212.63;;;7.40;99.37
47913;BME280;33676;51.006;17.180;2023-02-13T13:37:39;102210.60;;;7.44;98.91
47913;BME280;33676;51.006;17.180;2023-02-13T13:46:18;102204.70;;;7.49;97.33
47913;BME280;33676;51.006;17.180;2023-02-13T13:49:22;102201.73;;;7.48;96.97
47913;BME280;33676;51.006;17.180;2023-02-13T13:52:28;102190.62;;;7.48;95.47
47913;BME280;33676;51.006;17.180;2023-02-13T13:54:58;102190.50;;;7.47;94.92
47913;BME280;33676;51.006;17.180;2023-02-13T14:03:11;102201.02;;;7.44;95.57
47913;BME280;33676;51.006;17.180;2023-02-13T14:06:02;102195.16;;;7.43;95.37
47913;BME280;33676;51.006;17.180;2023-02-13T14:11:44;102177.43;;;7.42;95.44
47913;BME280;33676;51.006;17.180;2023-02-13T14:16:59;102197.31;;;7.41;95.09
47913;BME280;33676;51.006;17.180;2023-02-13T14:19:37;102192.09;;;7.41;95.14
47913;BME280;33676;51.006;17.180;2023-02-13T14:22:34;102188.13;;;7.40;95.18
47913;BME280;33676;51.006;17.180;2023-02-13T14:25:21;102184.04;;;7.37;94.69
47913;BME280;33676;51.006;17.180;2023-02-13T14:28:00;102176.59;;;7.36;94.66
47913;BME280;33676;51.006;17.180;2023-02-13T14:30:31;102176.62;;;7.35;94.78
47913;BME280;33676;51.006;17.180;2023-02-13T14:33:06;102171.58;;;7.35;95.17
47913;BME280;33676;51.006;17.180;2023-02-13T14:35:37;102170.41;;;7.34;94.78
47913;BME280;33676;51.006;17.180;2023-02-13T14:38:20;102168.56;;;7.31;94.56
47913;BME280;33676;51.006;17.180;2023-02-13T14:40:52;102161.52;;;7.29;94.77
47913;BME280;33676;51.006;17.180;2023-02-13T14:43:35;102160.91;;;7.27;94.76
47913;BME280;33676;51.006;17.180;2023-02-13T14:46:32;102158.59;;;7.24;94.65
47913;BME280;33676;51.006;17.180;2023-02-13T14:49:19;102154.19;;;7.20;94.34
47913;BME280;33676;51.006;17.180;2023-02-13T14:51:56;102146.98;;;7.17;94.30
47913;BME280;33676;51.006;17.180;2023-02-13T14:54:37;102141.52;;;7.14;94.39
47913;BME280;33676;51.006;17.180;2023-02-13T14:57:26;102137.11;;;7.11;94.52
47913;BME280;33676;51.006;17.180;2023-02-13T15:00:39;102142.58;;;7.09;94.68
47913;BME280;33676;51.006;17.180;2023-02-13T15:03:22;102142.84;;;7.06;94.79
47913;BME280;33676;51.006;17.180;2023-02-13T15:05:58;102138.21;;;7.04;95.01
47913;BME280;33676;51.006;17.180;2023-02-13T15:08:37;102126.45;;;7.02;95.35
47913;BME280;33676;51.006;17.180;2023-02-13T15:11:08;102121.64;;;7.01;95.76
47913;BME280;33676;51.006;17.180;2023-02-13T15:13:56;102117.52;;;6.99;96.40
47913;BME280;33676;51.006;17.180;2023-02-13T15:16:25;102114.73;;;6.99;96.69
47913;BME280;33676;51.006;17.180;2023-02-13T15:18:53;102114.66;;;6.96;97.06
47913;BME280;33676;51.006;17.180;2023-02-13T15:21:24;102121.02;;;6.93;97.15
47913;BME280;33676;51.006;17.180;2023-02-13T15:23:55;102120.74;;;6.91;97.37